sensor_id;sensor_type;location;lat;lon;timestamp;P1;durP1;ratioP1;P2;durP2;ratioP2
76094;SDS011;64821;13.710;100.604;2024-02-15T00:00:35;32.33;;;26.53;;
76094;SDS011;64821;13.710;100.604;2024-02-15T00:01:39;31.38;;;26.65;;
76094;SDS011;64821;13.710;100.604;2024-02-15T00:02:43;31.77;;;26.58;;
76094;SDS011;64821;13.710;100.604;2024-02-15T00:03:50;31.55;;;27.65;;
76094;SDS011;64821;13.710;100.604;2024-02-15T00:04:54;33.97;;;30.00;;
76094;SDS011;64821;13.710;100.604;2024-02-15T00:05:58;30.60;;;26.53;;
76094;SDS011;64821;13.710;100.604;2024-02-15T00:07:03;31.00;;;27.35;;
76094;SDS011;64821;13.710;100.604;2024-02-15T00:08:07;30.73;;;27.33;;
76094;SDS011;64821;13.710;100.604;2024-02-15T00:09:11;31.35;;;26.40;;
76094;SDS011;64821;13.710;100.604;2024-02-15T00:10:17;29.60;;;26.48;;
76094;SDS011;64821;13.710;100.604;2024-02-15T00:11:21;32.80;;;27.93;;
76094;SDS011;64821;13.710;100.604;2024-02-15T00:12:24;32.35;;;27.63;;
76094;SDS011;64821;13.710;100.604;2024-02-15T00:13:28;31.30;;;27.88;;
76094;SDS011;64821;13.710;100.604;2024-02-15T00:14:32;30.98;;;27.60;;
76094;SDS011;64821;13.710;100.604;2024-02-15T00:15:36;32.30;;;28.20;;
76094;SDS011;64821;13.710;100.604;2024-02-15T00:16:40;30.03;;;26.80;;
76094;SDS011;64821;13.710;100.604;2024-02-15T00:17:44;39.88;;;32.92;;
76094;SDS011;64821;13.710;100.604;2024-02-15T00:18:48;31.23;;;27.30;;
76094;SDS011;64821;13.710;100.604;2024-02-15T00:19:53;32.00;;;27.90;;
76094;SDS011;64821;13.710;100.604;2024-02-15T00:20:56;32.42;;;27.95;;
76094;SDS011;64821;13.710;100.604;2024-02-15T00:22:00;31.27;;;27.60;;
76094;SDS011;64821;13.710;100.604;2024-02-15T00:23:04;31.60;;;27.50;;
76094;SDS011;64821;13.710;100.604;2024-02-15T00:24:08;33.58;;;28.98;;
76094;SDS011;64821;13.710;100.604;2024-02-15T00:25:12;34.22;;;29.55;;
76094;SDS011;64821;13.710;100.604;2024-02-15T00:26:18;34.83;;;28.42;;
76094;SDS011;64821;13.710;100.604;2024-02-15T00:27:22;31.57;;;27.13;;
76094;SDS011;64821;13.710;100.604;2024-02-15T00:28:26;31.92;;;27.20;;
76094;SDS011;64821;13.710;100.604;2024-02-15T00:29:30;32.60;;;28.52;;
76094;SDS011;64821;13.710;100.604;2024-02-15T00:30:34;32.63;;;28.52;;
76094;SDS011;64821;13.710;100.604;2024-02-15T00:31:37;34.13;;;27.65;;
76094;SDS011;64821;13.710;100.604;2024-02-15T00:32:42;36.57;;;31.53;;
76094;SDS011;64821;13.710;100.604;2024-02-15T00:33:46;34.05;;;29.20;;
76094;SDS011;64821;13.710;100.604;2024-02-15T00:34:51;35.65;;;30.10;;
76094;SDS011;64821;13.710;100.604;2024-02-15T00:35:56;33.35;;;28.52;;
76094;SDS011;64821;13.710;100.604;2024-02-15T00:37:00;34.35;;;29.15;;
76094;SDS011;64821;13.710;100.604;2024-02-15T00:38:04;34.10;;;29.20;;
76094;SDS011;64821;13.710;100.604;2024-02-15T00:39:08;32.45;;;28.88;;
76094;SDS011;64821;13.710;100.604;2024-02-15T00:40:13;34.83;;;29.67;;
76094;SDS011;64821;13.710;100.604;2024-02-15T00:41:19;35.95;;;29.92;;
76094;SDS011;64821;13.710;100.604;2024-02-15T00:42:23;34.35;;;29.58;;
76094;SDS011;64821;13.710;100.604;2024-02-15T00:43:27;34.67;;;29.43;;
76094;SDS011;64821;13.710;100.604;2024-02-15T00:44:31;36.08;;;29.75;;
76094;SDS011;64821;13.710;100.604;2024-02-15T00:45:35;36.25;;;30.65;;
76094;SDS011;64821;13.710;100.604;2024-02-15T00:46:39;33.92;;;29.10;;
76094;SDS011;64821;13.710;100.604;2024-02-15T00:47:43;36.85;;;29.48;;
76094;SDS011;64821;13.710;100.604;2024-02-15T00:48:47;34.77;;;29.97;;
76094;SDS011;64821;13.710;100.604;2024-02-15T00:49:51;33.72;;;29.38;;
76094;SDS011;64821;13.710;100.604;2024-02-15T00:50:55;33.88;;;28.88;;
76094;SDS011;64821;13.710;100.604;2024-02-15T00:51:59;35.50;;;30.75;;
76094;SDS011;64821;13.710;100.604;2024-02-15T00:53:03;44.25;;;37.72;;
76094;SDS011;64821;13.710;100.604;2024-02-15T00:54:07;34.70;;;30.20;;
76094;SDS011;64821;13.710;100.604;2024-02-15T00:55:12;37.22;;;31.77;;
76094;SDS011;64821;13.710;100.604;2024-02-15T00:56:16;34.72;;;30.88;;
76094;SDS011;64821;13.710;100.604;2024-02-15T00:57:21;39.70;;;32.78;;
76094;SDS011;64821;13.710;100.604;2024-02-15T00:58:26;39.13;;;32.38;;
76094;SDS011;64821;13.710;100.604;2024-02-15T00:59:30;37.57;;;32.30;;
76094;SDS011;64821;13.710;100.604;2024-02-15T01:00:34;40.28;;;33.00;;
76094;SDS011;64821;13.710;100.604;2024-02-15T01:01:37;36.42;;;31.08;;
76094;SDS011;64821;13.710;100.604;2024-02-15T01:02:41;37.50;;;32.00;;
76094;SDS011;64821;13.710;100.604;2024-02-15T01:03:45;36.83;;;30.85;;
76094;SDS011;64821;13.710;100.604;2024-02-15T01:04:51;47.13;;;39.07;;
76094;SDS011;64821;13.710;100.604;2024-02-15T01:05:55;38.55;;;32.65;;
76094;SDS011;64821;13.710;100.604;2024-02-15T01:06:59;41.65;;;33.10;;
76094;SDS011;64821;13.710;100.604;2024-02-15T01:08:03;38.95;;;33.63;;
76094;SDS011;64821;13.710;100.604;2024-02-15T01:09:08;41.30;;;35.13;;
76094;SDS011;64821;13.710;100.604;2024-02-15T01:10:12;50.33;;;42.27;;
76094;SDS011;64821;13.710;100.604;2024-02-15T01:11:16;37.58;;;33.00;;
76094;SDS011;64821;13.710;100.604;2024-02-15T01:12:22;38.30;;;31.58;;
76094;SDS011;64821;13.710;100.604;2024-02-15T01:13:26;37.08;;;31.95;;
76094;SDS011;64821;13.710;100.604;2024-02-15T01:14:30;36.63;;;31.50;;
76094;SDS011;64821;13.710;100.604;2024-02-15T01:15:34;46.77;;;39.70;;
76094;SDS011;64821;13.710;100.604;2024-02-15T01:16:38;40.53;;;34.65;;
76094;SDS011;64821;13.710;100.604;2024-02-15T01:17:42;40.08;;;34.13;;
76094;SDS011;64821;13.710;100.604;2024-02-15T01:18:46;39.60;;;34.40;;
76094;SDS011;64821;13.710;100.604;2024-02-15T01:19:50;38.55;;;33.35;;
76094;SDS011;64821;13.710;100.604;2024-02-15T01:20:54;41.53;;;34.30;;
76094;SDS011;64821;13.710;100.604;2024-02-15T01:21:58;51.53;;;42.53;;
76094;SDS011;64821;13.710;100.604;2024-02-15T01:23:02;56.25;;;45.65;;
76094;SDS011;64821;13.710;100.604;2024-02-15T01:24:06;46.28;;;38.22;;
76094;SDS011;64821;13.710;100.604;2024-02-15T01:25:10;45.25;;;38.03;;
76094;SDS011;64821;13.710;100.604;2024-02-15T01:26:14;40.57;;;33.97;;
76094;SDS011;64821;13.710;100.604;2024-02-15T01:27:18;49.72;;;40.42;;
76094;SDS011;64821;13.710;100.604;2024-02-15T01:28:24;56.33;;;45.78;;
76094;SDS011;64821;13.710;100.604;2024-02-15T01:29:28;52.63;;;41.58;;
76094;SDS011;64821;13.710;100.604;2024-02-15T01:30:32;49.65;;;41.65;;
76094;SDS011;64821;13.710;100.604;2024-02-15T01:31:35;56.00;;;45.07;;
76094;SDS011;64821;13.710;100.604;2024-02-15T01:32:39;50.95;;;42.10;;
76094;SDS011;64821;13.710;100.604;2024-02-15T01:33:44;42.45;;;35.25;;
76094;SDS011;64821;13.710;100.604;2024-02-15T01:34:49;40.22;;;33.33;;
76094;SDS011;64821;13.710;100.604;2024-02-15T01:35:53;38.85;;;32.75;;
76094;SDS011;64821;13.710;100.604;2024-02-15T01:36:57;41.90;;;34.37;;
76094;SDS011;64821;13.710;100.604;2024-02-15T01:38:00;40.20;;;34.25;;
76094;SDS011;64821;13.710;100.604;2024-02-15T01:39:04;39.70;;;32.95;;
76094;SDS011;64821;13.710;100.604;2024-02-15T01:40:09;44.45;;;36.22;;
76094;SDS011;64821;13.710;100.604;2024-02-15T01:41:13;38.00;;;33.05;;
76094;SDS011;64821;13.710;100.604;2024-02-15T01:42:17;37.27;;;32.50;;
76094;SDS011;64821;13.710;100.604;2024-02-15T01:43:21;39.72;;;32.97;;
76094;SDS011;64821;13.710;100.604;2024-02-15T01:44:26;38.42;;;32.88;;
76094;SDS011;64821;13.710;100.604;2024-02-15T01:45:30;50.53;;;41.50;;
76094;SDS011;64821;13.710;100.604;2024-02-15T01:46:34;45.83;;;38.60;;
76094;SDS011;64821;13.710;100.604;2024-02-15T01:47:38;37.23;;;30.93;;
76094;SDS011;64821;13.710;100.604;2024-02-15T01:48:43;37.88;;;31.10;;
76094;SDS011;64821;13.710;100.604;2024-02-15T01:49:48;38.05;;;31.55;;
76094;SDS011;64821;13.710;100.604;2024-02-15T01:50:53;37.22;;;31.17;;
76094;SDS011;64821;13.710;100.604;2024-02-15T01:51:57;39.50;;;31.48;;
76094;SDS011;64821;13.710;100.604;2024-02-15T01:53:03;42.77;;;35.73;;
76094;SDS011;64821;13.710;100.604;2024-02-15T01:54:10;40.15;;;33.08;;
76094;SDS011;64821;13.710;100.604;2024-02-15T01:55:16;35.55;;;30.77;;
76094;SDS011;64821;13.710;100.604;2024-02-15T01:56:21;49.80;;;42.03;;
76094;SDS011;64821;13.710;100.604;2024-02-15T01:57:27;39.95;;;33.97;;
76094;SDS011;64821;13.710;100.604;2024-02-15T01:58:31;43.23;;;35.10;;
76094;SDS011;64821;13.710;100.604;2024-02-15T01:59:38;52.00;;;41.85;;
76094;SDS011;64821;13.710;100.604;2024-02-15T02:00:42;46.90;;;40.60;;
76094;SDS011;64821;13.710;100.604;2024-02-15T02:01:46;43.38;;;34.65;;
76094;SDS011;64821;13.710;100.604;2024-02-15T02:02:50;39.97;;;32.63;;
76094;SDS011;64821;13.710;100.604;2024-02-15T02:03:57;43.53;;;36.37;;
76094;SDS011;64821;13.710;100.604;2024-02-15T02:05:03;38.08;;;31.65;;
76094;SDS011;64821;13.710;100.604;2024-02-15T02:06:07;40.63;;;34.15;;
76094;SDS011;64821;13.710;100.604;2024-02-15T02:07:11;54.78;;;40.08;;
76094;SDS011;64821;13.710;100.604;2024-02-15T02:08:15;53.25;;;43.13;;
76094;SDS011;64821;13.710;100.604;2024-02-15T02:09:19;46.63;;;39.37;;
76094;SDS011;64821;13.710;100.604;2024-02-15T02:10:23;49.47;;;37.85;;
76094;SDS011;64821;13.710;100.604;2024-02-15T02:11:27;50.33;;;39.50;;
76094;SDS011;64821;13.710;100.604;2024-02-15T02:12:31;41.08;;;33.85;;
76094;SDS011;64821;13.710;100.604;2024-02-15T02:13:35;43.95;;;35.75;;
76094;SDS011;64821;13.710;100.604;2024-02-15T02:14:41;37.37;;;31.23;;
76094;SDS011;64821;13.710;100.604;2024-02-15T02:15:45;48.90;;;40.58;;
76094;SDS011;64821;13.710;100.604;2024-02-15T02:16:49;40.47;;;33.83;;
76094;SDS011;64821;13.710;100.604;2024-02-15T02:17:53;44.80;;;36.42;;
76094;SDS011;64821;13.710;100.604;2024-02-15T02:18:57;39.30;;;34.03;;
76094;SDS011;64821;13.710;100.604;2024-02-15T02:20:02;41.77;;;33.30;;
76094;SDS011;64821;13.710;100.604;2024-02-15T02:21:07;39.25;;;34.70;;
76094;SDS011;64821;13.710;100.604;2024-02-15T02:22:11;39.80;;;32.42;;
76094;SDS011;64821;13.710;100.604;2024-02-15T02:23:15;45.00;;;35.08;;
76094;SDS011;64821;13.710;100.604;2024-02-15T02:24:20;40.35;;;34.28;;
76094;SDS011;64821;13.710;100.604;2024-02-15T02:25:27;39.73;;;35.40;;
76094;SDS011;64821;13.710;100.604;2024-02-15T02:26:31;42.28;;;34.90;;
76094;SDS011;64821;13.710;100.604;2024-02-15T02:27:35;40.58;;;34.28;;
76094;SDS011;64821;13.710;100.604;2024-02-15T02:28:39;39.90;;;33.38;;
76094;SDS011;64821;13.710;100.604;2024-02-15T02:29:44;50.42;;;38.40;;
76094;SDS011;64821;13.710;100.604;2024-02-15T02:30:48;44.87;;;37.20;;
76094;SDS011;64821;13.710;100.604;2024-02-15T02:31:52;36.80;;;32.15;;
76094;SDS011;64821;13.710;100.604;2024-02-15T02:32:56;47.38;;;36.80;;
76094;SDS011;64821;13.710;100.604;2024-02-15T02:34:00;38.38;;;32.17;;
76094;SDS011;64821;13.710;100.604;2024-02-15T02:35:05;40.83;;;33.00;;
76094;SDS011;64821;13.710;100.604;2024-02-15T02:36:09;34.87;;;29.60;;
76094;SDS011;64821;13.710;100.604;2024-02-15T02:37:13;39.33;;;32.85;;
76094;SDS011;64821;13.710;100.604;2024-02-15T02:38:18;36.10;;;30.13;;
76094;SDS011;64821;13.710;100.604;2024-02-15T02:39:22;35.85;;;29.45;;
76094;SDS011;64821;13.710;100.604;2024-02-15T02:40:28;42.00;;;35.60;;
76094;SDS011;64821;13.710;100.604;2024-02-15T02:41:32;39.93;;;32.47;;
76094;SDS011;64821;13.710;100.604;2024-02-15T02:42:36;41.78;;;34.00;;
76094;SDS011;64821;13.710;100.604;2024-02-15T02:43:48;39.78;;;33.80;;
76094;SDS011;64821;13.710;100.604;2024-02-15T02:44:52;37.22;;;31.30;;
76094;SDS011;64821;13.710;100.604;2024-02-15T02:45:56;38.28;;;31.38;;
76094;SDS011;64821;13.710;100.604;2024-02-15T02:47:01;36.27;;;30.70;;
76094;SDS011;64821;13.710;100.604;2024-02-15T02:48:05;41.50;;;33.92;;
76094;SDS011;64821;13.710;100.604;2024-02-15T02:49:09;34.63;;;30.77;;
76094;SDS011;64821;13.710;100.604;2024-02-15T02:50:33;41.17;;;33.63;;
76094;SDS011;64821;13.710;100.604;2024-02-15T02:51:40;37.20;;;31.52;;
76094;SDS011;64821;13.710;100.604;2024-02-15T02:52:44;36.50;;;30.13;;
76094;SDS011;64821;13.710;100.604;2024-02-15T02:53:48;35.47;;;31.10;;
76094;SDS011;64821;13.710;100.604;2024-02-15T02:54:52;36.50;;;31.50;;
76094;SDS011;64821;13.710;100.604;2024-02-15T02:55:58;32.90;;;28.73;;
76094;SDS011;64821;13.710;100.604;2024-02-15T02:57:02;36.17;;;32.17;;
76094;SDS011;64821;13.710;100.604;2024-02-15T02:58:06;37.20;;;30.83;;
76094;SDS011;64821;13.710;100.604;2024-02-15T02:59:10;35.05;;;29.30;;
76094;SDS011;64821;13.710;100.604;2024-02-15T03:00:14;43.75;;;36.30;;
76094;SDS011;64821;13.710;100.604;2024-02-15T03:01:21;40.17;;;34.15;;
76094;SDS011;64821;13.710;100.604;2024-02-15T03:02:26;38.00;;;32.85;;
76094;SDS011;64821;13.710;100.604;2024-02-15T03:03:30;35.43;;;31.53;;
76094;SDS011;64821;13.710;100.604;2024-02-15T03:04:33;38.28;;;32.92;;
76094;SDS011;64821;13.710;100.604;2024-02-15T03:05:37;36.30;;;32.22;;
76094;SDS011;64821;13.710;100.604;2024-02-15T03:06:41;33.65;;;28.98;;
76094;SDS011;64821;13.710;100.604;2024-02-15T03:07:46;39.50;;;34.30;;
76094;SDS011;64821;13.710;100.604;2024-02-15T03:08:49;39.23;;;33.87;;
76094;SDS011;64821;13.710;100.604;2024-02-15T03:09:53;38.10;;;31.83;;
76094;SDS011;64821;13.710;100.604;2024-02-15T03:10:59;39.38;;;33.83;;
76094;SDS011;64821;13.710;100.604;2024-02-15T03:12:03;38.00;;;33.22;;
76094;SDS011;64821;13.710;100.604;2024-02-15T03:13:08;35.17;;;30.67;;
76094;SDS011;64821;13.710;100.604;2024-02-15T03:14:12;38.20;;;33.93;;
76094;SDS011;64821;13.710;100.604;2024-02-15T03:15:16;45.88;;;37.33;;
76094;SDS011;64821;13.710;100.604;2024-02-15T03:16:22;37.67;;;32.95;;
76094;SDS011;64821;13.710;100.604;2024-02-15T03:17:26;44.50;;;35.88;;
76094;SDS011;64821;13.710;100.604;2024-02-15T03:18:30;38.35;;;34.13;;
76094;SDS011;64821;13.710;100.604;2024-02-15T03:19:34;40.73;;;35.60;;
76094;SDS011;64821;13.710;100.604;2024-02-15T03:20:38;41.22;;;35.75;;
76094;SDS011;64821;13.710;100.604;2024-02-15T03:21:42;41.15;;;35.60;;
76094;SDS011;64821;13.710;100.604;2024-02-15T03:22:47;36.50;;;31.85;;
76094;SDS011;64821;13.710;100.604;2024-02-15T03:23:54;38.55;;;32.63;;
76094;SDS011;64821;13.710;100.604;2024-02-15T03:24:58;39.57;;;33.13;;
76094;SDS011;64821;13.710;100.604;2024-02-15T03:26:03;40.50;;;34.70;;
76094;SDS011;64821;13.710;100.604;2024-02-15T03:27:13;44.22;;;37.15;;
76094;SDS011;64821;13.710;100.604;2024-02-15T03:28:18;43.88;;;35.83;;
76094;SDS011;64821;13.710;100.604;2024-02-15T03:29:23;37.70;;;32.78;;
76094;SDS011;64821;13.710;100.604;2024-02-15T03:30:27;39.27;;;33.93;;
76094;SDS011;64821;13.710;100.604;2024-02-15T03:31:32;38.42;;;34.20;;
76094;SDS011;64821;13.710;100.604;2024-02-15T03:32:36;36.25;;;32.35;;
76094;SDS011;64821;13.710;100.604;2024-02-15T03:33:40;40.42;;;35.03;;
76094;SDS011;64821;13.710;100.604;2024-02-15T03:34:45;37.70;;;33.25;;
76094;SDS011;64821;13.710;100.604;2024-02-15T03:35:49;38.77;;;34.30;;
76094;SDS011;64821;13.710;100.604;2024-02-15T03:36:54;39.53;;;34.58;;
76094;SDS011;64821;13.710;100.604;2024-02-15T03:37:58;42.13;;;35.97;;
76094;SDS011;64821;13.710;100.604;2024-02-15T03:39:02;42.75;;;36.92;;
76094;SDS011;64821;13.710;100.604;2024-02-15T03:40:07;43.17;;;37.50;;
76094;SDS011;64821;13.710;100.604;2024-02-15T03:41:13;38.07;;;33.03;;
76094;SDS011;64821;13.710;100.604;2024-02-15T03:43:54;41.15;;;36.72;;
76094;SDS011;64821;13.710;100.604;2024-02-15T03:46:35;44.42;;;37.35;;
76094;SDS011;64821;13.710;100.604;2024-02-15T03:48:11;38.73;;;34.60;;
76094;SDS011;64821;13.710;100.604;2024-02-15T03:49:13;41.95;;;36.65;;
76094;SDS011;64821;13.710;100.604;2024-02-15T03:50:17;41.28;;;35.92;;
76094;SDS011;64821;13.710;100.604;2024-02-15T03:51:22;38.10;;;33.60;;
76094;SDS011;64821;13.710;100.604;2024-02-15T03:52:25;39.05;;;34.45;;
76094;SDS011;64821;13.710;100.604;2024-02-15T03:53:29;37.77;;;32.77;;
76094;SDS011;64821;13.710;100.604;2024-02-15T03:54:33;40.92;;;35.20;;
76094;SDS011;64821;13.710;100.604;2024-02-15T03:55:37;41.03;;;34.55;;
76094;SDS011;64821;13.710;100.604;2024-02-15T03:56:48;39.03;;;34.83;;
76094;SDS011;64821;13.710;100.604;2024-02-15T03:57:52;40.45;;;35.58;;
76094;SDS011;64821;13.710;100.604;2024-02-15T03:58:56;38.90;;;34.67;;
76094;SDS011;64821;13.710;100.604;2024-02-15T04:00:00;39.55;;;35.25;;
76094;SDS011;64821;13.710;100.604;2024-02-15T04:01:04;40.42;;;35.95;;
76094;SDS011;64821;13.710;100.604;2024-02-15T04:02:09;36.42;;;32.50;;
76094;SDS011;64821;13.710;100.604;2024-02-15T04:03:13;37.75;;;33.65;;
76094;SDS011;64821;13.710;100.604;2024-02-15T04:04:16;36.77;;;32.77;;
76094;SDS011;64821;13.710;100.604;2024-02-15T04:05:20;38.70;;;33.95;;
76094;SDS011;64821;13.710;100.604;2024-02-15T04:06:25;37.67;;;33.65;;
76094;SDS011;64821;13.710;100.604;2024-02-15T04:07:29;41.05;;;33.78;;
76094;SDS011;64821;13.710;100.604;2024-02-15T04:08:33;38.17;;;33.88;;
76094;SDS011;64821;13.710;100.604;2024-02-15T04:09:37;34.60;;;30.90;;
76094;SDS011;64821;13.710;100.604;2024-02-15T04:10:41;37.88;;;33.00;;
76094;SDS011;64821;13.710;100.604;2024-02-15T04:11:45;38.15;;;33.00;;
76094;SDS011;64821;13.710;100.604;2024-02-15T04:12:51;37.05;;;32.70;;
76094;SDS011;64821;13.710;100.604;2024-02-15T04:13:55;38.38;;;32.10;;
76094;SDS011;64821;13.710;100.604;2024-02-15T04:14:59;34.43;;;30.53;;
76094;SDS011;64821;13.710;100.604;2024-02-15T04:16:03;34.63;;;30.83;;
76094;SDS011;64821;13.710;100.604;2024-02-15T04:17:08;39.70;;;35.15;;
76094;SDS011;64821;13.710;100.604;2024-02-15T04:18:12;43.63;;;36.85;;
76094;SDS011;64821;13.710;100.604;2024-02-15T04:19:16;35.53;;;31.73;;
76094;SDS011;64821;13.710;100.604;2024-02-15T04:20:20;36.50;;;32.23;;
76094;SDS011;64821;13.710;100.604;2024-02-15T04:21:24;35.67;;;31.88;;
76094;SDS011;64821;13.710;100.604;2024-02-15T04:22:28;36.47;;;31.80;;
76094;SDS011;64821;13.710;100.604;2024-02-15T04:23:32;40.55;;;33.42;;
76094;SDS011;64821;13.710;100.604;2024-02-15T04:24:36;35.47;;;31.52;;
76094;SDS011;64821;13.710;100.604;2024-02-15T04:25:40;37.00;;;32.40;;
76094;SDS011;64821;13.710;100.604;2024-02-15T04:26:44;39.08;;;32.95;;
76094;SDS011;64821;13.710;100.604;2024-02-15T04:27:50;36.88;;;32.28;;
76094;SDS011;64821;13.710;100.604;2024-02-15T04:28:54;36.88;;;32.35;;
76094;SDS011;64821;13.710;100.604;2024-02-15T04:29:57;37.78;;;33.75;;
76094;SDS011;64821;13.710;100.604;2024-02-15T04:31:01;37.17;;;33.03;;
76094;SDS011;64821;13.710;100.604;2024-02-15T04:32:06;41.42;;;36.92;;
76094;SDS011;64821;13.710;100.604;2024-02-15T04:33:10;35.88;;;31.90;;
76094;SDS011;64821;13.710;100.604;2024-02-15T04:34:14;42.80;;;36.22;;
76094;SDS011;64821;13.710;100.604;2024-02-15T04:35:19;40.92;;;32.75;;
76094;SDS011;64821;13.710;100.604;2024-02-15T04:36:23;36.20;;;32.10;;
76094;SDS011;64821;13.710;100.604;2024-02-15T04:37:27;38.33;;;33.75;;
76094;SDS011;64821;13.710;100.604;2024-02-15T04:38:31;38.15;;;32.25;;
76094;SDS011;64821;13.710;100.604;2024-02-15T04:39:35;37.60;;;33.15;;
76094;SDS011;64821;13.710;100.604;2024-02-15T04:40:39;37.97;;;33.88;;
76094;SDS011;64821;13.710;100.604;2024-02-15T04:41:43;39.57;;;35.20;;
76094;SDS011;64821;13.710;100.604;2024-02-15T04:42:49;39.28;;;33.92;;
76094;SDS011;64821;13.710;100.604;2024-02-15T04:43:53;41.13;;;35.95;;
76094;SDS011;64821;13.710;100.604;2024-02-15T04:44:57;36.97;;;32.80;;
76094;SDS011;64821;13.710;100.604;2024-02-15T04:46:01;36.58;;;32.47;;
76094;SDS011;64821;13.710;100.604;2024-02-15T04:47:05;39.23;;;34.30;;
76094;SDS011;64821;13.710;100.604;2024-02-15T04:48:09;41.25;;;35.63;;
76094;SDS011;64821;13.710;100.604;2024-02-15T04:49:13;38.65;;;34.38;;
76094;SDS011;64821;13.710;100.604;2024-02-15T04:50:17;37.03;;;33.03;;
76094;SDS011;64821;13.710;100.604;2024-02-15T04:51:21;37.20;;;32.97;;
76094;SDS011;64821;13.710;100.604;2024-02-15T04:52:25;37.30;;;33.13;;
76094;SDS011;64821;13.710;100.604;2024-02-15T04:53:29;36.35;;;32.45;;
76094;SDS011;64821;13.710;100.604;2024-02-15T04:54:33;38.80;;;34.70;;
76094;SDS011;64821;13.710;100.604;2024-02-15T04:55:37;38.78;;;34.67;;
76094;SDS011;64821;13.710;100.604;2024-02-15T04:56:41;37.13;;;33.05;;
76094;SDS011;64821;13.710;100.604;2024-02-15T04:57:45;35.87;;;31.80;;
76094;SDS011;64821;13.710;100.604;2024-02-15T04:58:51;36.85;;;32.72;;
76094;SDS011;64821;13.710;100.604;2024-02-15T04:59:55;35.50;;;31.45;;
76094;SDS011;64821;13.710;100.604;2024-02-15T05:00:59;36.15;;;32.22;;
76094;SDS011;64821;13.710;100.604;2024-02-15T05:02:03;36.42;;;32.33;;
76094;SDS011;64821;13.710;100.604;2024-02-15T05:03:09;38.97;;;34.77;;
76094;SDS011;64821;13.710;100.604;2024-02-15T05:04:14;38.03;;;33.92;;
76094;SDS011;64821;13.710;100.604;2024-02-15T05:05:19;36.00;;;32.20;;
76094;SDS011;64821;13.710;100.604;2024-02-15T05:06:23;38.03;;;34.00;;
76094;SDS011;64821;13.710;100.604;2024-02-15T05:07:27;37.08;;;32.83;;
76094;SDS011;64821;13.710;100.604;2024-02-15T05:08:32;38.87;;;34.67;;
76094;SDS011;64821;13.710;100.604;2024-02-15T05:09:36;36.60;;;32.63;;
76094;SDS011;64821;13.710;100.604;2024-02-15T05:10:40;35.05;;;31.25;;
76094;SDS011;64821;13.710;100.604;2024-02-15T05:11:44;37.88;;;33.78;;
76094;SDS011;64821;13.710;100.604;2024-02-15T05:12:48;35.30;;;31.55;;
76094;SDS011;64821;13.710;100.604;2024-02-15T05:13:54;39.27;;;33.67;;
76094;SDS011;64821;13.710;100.604;2024-02-15T05:14:58;36.63;;;32.67;;
76094;SDS011;64821;13.710;100.604;2024-02-15T05:16:02;36.10;;;32.33;;
76094;SDS011;64821;13.710;100.604;2024-02-15T05:17:07;40.42;;;34.20;;
76094;SDS011;64821;13.710;100.604;2024-02-15T05:18:11;36.97;;;33.03;;
76094;SDS011;64821;13.710;100.604;2024-02-15T05:19:15;37.33;;;33.33;;
76094;SDS011;64821;13.710;100.604;2024-02-15T05:20:20;38.88;;;34.25;;
76094;SDS011;64821;13.710;100.604;2024-02-15T05:21:24;41.53;;;37.00;;
76094;SDS011;64821;13.710;100.604;2024-02-15T05:22:28;38.65;;;34.53;;
76094;SDS011;64821;13.710;100.604;2024-02-15T05:23:32;36.72;;;32.88;;
76094;SDS011;64821;13.710;100.604;2024-02-15T05:24:36;37.20;;;33.10;;
76094;SDS011;64821;13.710;100.604;2024-02-15T05:25:40;36.00;;;32.20;;
76094;SDS011;64821;13.710;100.604;2024-02-15T05:26:44;35.35;;;31.73;;
76094;SDS011;64821;13.710;100.604;2024-02-15T05:27:49;39.28;;;35.03;;
76094;SDS011;64821;13.710;100.604;2024-02-15T05:28:54;38.28;;;34.28;;
76094;SDS011;64821;13.710;100.604;2024-02-15T05:29:58;38.77;;;33.63;;
76094;SDS011;64821;13.710;100.604;2024-02-15T05:31:09;39.13;;;34.97;;
76094;SDS011;64821;13.710;100.604;2024-02-15T05:32:23;38.97;;;34.50;;
76094;SDS011;64821;13.710;100.604;2024-02-15T05:33:27;38.08;;;33.97;;
76094;SDS011;64821;13.710;100.604;2024-02-15T05:34:32;39.70;;;35.08;;
76094;SDS011;64821;13.710;100.604;2024-02-15T05:35:36;38.40;;;34.37;;
76094;SDS011;64821;13.710;100.604;2024-02-15T05:36:40;36.80;;;32.83;;
76094;SDS011;64821;13.710;100.604;2024-02-15T05:37:47;37.50;;;33.40;;
76094;SDS011;64821;13.710;100.604;2024-02-15T05:38:52;37.97;;;33.85;;
76094;SDS011;64821;13.710;100.604;2024-02-15T05:39:56;41.15;;;36.67;;
76094;SDS011;64821;13.710;100.604;2024-02-15T05:41:00;42.27;;;37.23;;
76094;SDS011;64821;13.710;100.604;2024-02-15T05:42:04;39.65;;;35.35;;
76094;SDS011;64821;13.710;100.604;2024-02-15T05:43:08;39.73;;;35.40;;
76094;SDS011;64821;13.710;100.604;2024-02-15T05:44:14;36.65;;;32.75;;
76094;SDS011;64821;13.710;100.604;2024-02-15T05:45:30;39.85;;;35.50;;
76094;SDS011;64821;13.710;100.604;2024-02-15T05:46:35;35.30;;;31.73;;
76094;SDS011;64821;13.710;100.604;2024-02-15T05:47:39;40.53;;;35.90;;
76094;SDS011;64821;13.710;100.604;2024-02-15T05:49:08;39.00;;;34.90;;
76094;SDS011;64821;13.710;100.604;2024-02-15T05:50:12;35.70;;;31.88;;
76094;SDS011;64821;13.710;100.604;2024-02-15T05:51:16;37.95;;;34.05;;
76094;SDS011;64821;13.710;100.604;2024-02-15T05:52:20;38.60;;;33.30;;
76094;SDS011;64821;13.710;100.604;2024-02-15T05:53:24;39.25;;;35.15;;
76094;SDS011;64821;13.710;100.604;2024-02-15T05:54:28;39.00;;;34.80;;
76094;SDS011;64821;13.710;100.604;2024-02-15T05:55:32;38.65;;;34.50;;
76094;SDS011;64821;13.710;100.604;2024-02-15T05:56:36;38.70;;;34.50;;
76094;SDS011;64821;13.710;100.604;2024-02-15T05:57:40;38.17;;;34.03;;
76094;SDS011;64821;13.710;100.604;2024-02-15T05:58:44;37.95;;;33.97;;
76094;SDS011;64821;13.710;100.604;2024-02-15T05:59:50;40.40;;;35.42;;
76094;SDS011;64821;13.710;100.604;2024-02-15T06:00:57;41.10;;;35.70;;
76094;SDS011;64821;13.710;100.604;2024-02-15T06:02:02;40.25;;;35.42;;
76094;SDS011;64821;13.710;100.604;2024-02-15T06:03:06;37.67;;;33.80;;
76094;SDS011;64821;13.710;100.604;2024-02-15T06:04:10;37.75;;;33.75;;
76094;SDS011;64821;13.710;100.604;2024-02-15T06:05:14;41.53;;;36.95;;
76094;SDS011;64821;13.710;100.604;2024-02-15T06:06:18;39.45;;;35.15;;
76094;SDS011;64821;13.710;100.604;2024-02-15T06:07:22;39.70;;;35.53;;
76094;SDS011;64821;13.710;100.604;2024-02-15T06:08:26;40.43;;;36.13;;
76094;SDS011;64821;13.710;100.604;2024-02-15T06:09:30;39.33;;;35.15;;
76094;SDS011;64821;13.710;100.604;2024-02-15T06:10:34;39.22;;;34.05;;